Time;durP1;ratioP1;P1;durP2;ratioP2;P2;SDS_P1;SDS_P2;PMS_P1;PMS_P2;Temp;Humidity;BMP_temperature;BMP_pressure;BME280_temperature;BME280_humidity;BME280_pressure;Samples;Min_cycle;Max_cycle;Signal;HPM_P1;HPM_P2
2021/03/04 00:01:09;;;;;;;126.63;47.93;;;6.90;99.90;;;;;;5112765;28;20727;-79
2021/03/04 00:03:54;;;;;;;139.13;50.53;;;6.90;99.90;;;;;;5104114;28;20201;-79
2021/03/04 00:06:39;;;;;;;138.80;52.33;;;6.90;99.90;;;;;;5110326;28;20213;-78
2021/03/04 00:09:23;;;;;;;143.87;51.17;;;7.00;99.90;;;;;;5099932;28;20209;-78
2021/03/04 00:12:09;;;;;;;147.70;50.70;;;6.90;99.90;;;;;;5102455;28;20221;-78
2021/03/04 00:14:54;;;;;;;140.77;53.40;;;7.00;99.90;;;;;;5110453;28;20240;-78
2021/03/04 00:17:39;;;;;;;162.97;52.30;;;7.00;99.90;;;;;;5105412;28;20210;-78
2021/03/04 00:20:26;;;;;;;143.43;51.33;;;6.90;99.90;;;;;;5101279;28;20223;-78
2021/03/04 00:23:11;;;;;;;158.13;54.53;;;6.90;99.90;;;;;;5116228;28;20193;-78
2021/03/04 00:25:56;;;;;;;146.23;54.67;;;7.00;99.90;;;;;;5108145;28;20309;-79
2021/03/04 00:28:41;;;;;;;137.73;52.40;;;6.90;99.90;;;;;;5118029;28;20223;-78
2021/03/04 00:31:26;;;;;;;151.73;55.33;;;6.90;99.90;;;;;;5106104;28;20290;-78
2021/03/04 00:34:11;;;;;;;159.80;53.97;;;6.90;99.90;;;;;;5102849;28;20209;-78
2021/03/04 00:36:56;;;;;;;147.13;52.50;;;6.90;99.90;;;;;;5104144;28;20197;-79
2021/03/04 00:39:41;;;;;;;155.63;53.47;;;6.90;99.90;;;;;;5101596;28;20208;-78
2021/03/04 00:42:26;;;;;;;160.50;55.87;;;6.90;99.90;;;;;;5102712;28;20216;-78
2021/03/04 00:45:12;;;;;;;153.97;54.97;;;6.90;99.90;;;;;;5099248;28;20259;-78
2021/03/04 00:47:57;;;;;;;158.70;52.63;;;6.90;99.90;;;;;;5099247;28;20252;-78
2021/03/04 00:50:42;;;;;;;142.07;52.27;;;6.90;99.90;;;;;;5111959;28;20249;-78
2021/03/04 00:53:28;;;;;;;166.63;57.50;;;6.90;99.90;;;;;;5097448;28;20197;-78
2021/03/04 00:56:13;;;;;;;157.73;56.13;;;6.90;99.90;;;;;;5111178;28;20247;-79
2021/03/04 00:58:58;;;;;;;153.40;55.17;;;6.90;99.90;;;;;;5124162;28;20182;-79
2021/03/04 01:01:43;;;;;;;160.70;54.30;;;6.90;99.90;;;;;;5126561;28;20274;-79
2021/03/04 01:04:28;;;;;;;144.83;54.37;;;6.90;99.90;;;;;;5109429;28;20204;-78
2021/03/04 01:07:14;;;;;;;145.27;53.40;;;6.90;99.90;;;;;;5110279;28;20256;-78
2021/03/04 01:10:01;;;;;;;140.87;52.90;;;6.90;99.90;;;;;;5114728;28;20280;-78
2021/03/04 01:12:46;;;;;;;157.00;56.33;;;6.90;99.90;;;;;;5119590;28;20223;-78
2021/03/04 01:15:32;;;;;;;149.87;53.07;;;6.90;99.90;;;;;;5116426;28;20212;-78
2021/03/04 01:18:17;;;;;;;143.00;53.53;;;6.90;99.90;;;;;;5110636;28;20212;-79
2021/03/04 01:21:03;;;;;;;141.10;51.87;;;6.90;99.90;;;;;;5097963;28;20362;-77
2021/03/04 01:23:48;;;;;;;141.33;51.60;;;6.90;99.90;;;;;;5105267;28;20346;-77
2021/03/04 01:26:33;;;;;;;133.93;49.73;;;6.90;99.90;;;;;;5102672;28;20274;-77
2021/03/04 01:29:18;;;;;;;129.73;48.70;;;6.90;99.90;;;;;;5099612;28;20285;-77
2021/03/04 01:32:07;;;;;;;128.47;51.30;;;6.90;99.90;;;;;;5102976;28;20735;-77
2021/03/04 01:34:52;;;;;;;123.30;47.57;;;6.90;99.90;;;;;;5096927;28;20580;-77
2021/03/04 01:37:37;;;;;;;129.57;48.57;;;6.90;99.90;;;;;;5093083;28;20256;-77
2021/03/04 01:40:22;;;;;;;128.53;49.27;;;6.90;99.90;;;;;;5092949;28;20205;-77
2021/03/04 01:43:08;;;;;;;115.73;46.50;;;6.90;99.90;;;;;;5096256;28;20201;-77
2021/03/04 01:45:53;;;;;;;117.03;47.67;;;6.90;99.90;;;;;;5092859;28;20214;-77
2021/03/04 01:48:39;;;;;;;118.80;48.03;;;6.90;99.90;;;;;;5105505;28;20201;-77
2021/03/04 01:51:25;;;;;;;121.33;47.40;;;6.90;99.90;;;;;;5098276;28;20257;-77
2021/03/04 01:54:10;;;;;;;125.30;48.60;;;6.90;99.90;;;;;;5098116;28;20275;-77
2021/03/04 01:56:55;;;;;;;130.47;48.67;;;6.80;99.90;;;;;;5096167;28;20202;-77
2021/03/04 01:59:41;;;;;;;128.70;48.67;;;6.80;99.90;;;;;;5097984;28;20957;-77
2021/03/04 02:02:26;;;;;;;130.17;51.17;;;6.80;99.90;;;;;;5108039;28;20228;-77
2021/03/04 02:05:14;;;;;;;136.40;54.70;;;6.80;99.90;;;;;;5097942;28;20193;-77
2021/03/04 02:08:05;;;;;;;121.90;49.97;;;6.80;99.90;;;;;;5104046;28;20213;-77
2021/03/04 02:10:55;;;;;;;121.77;47.70;;;6.80;99.90;;;;;;5108584;28;20246;-78
2021/03/04 02:13:43;;;;;;;118.87;47.53;;;6.80;99.90;;;;;;5102355;28;20253;-77
2021/03/04 02:16:34;;;;;;;116.43;46.27;;;6.80;99.90;;;;;;5101621;28;20240;-77
2021/03/04 02:19:37;;;;;;;112.57;47.53;;;6.80;99.90;;;;;;5105502;28;20259;-77
2021/03/04 02:22:49;;;;;;;108.87;44.47;;;6.70;99.90;;;;;;5094619;28;20221;-78
2021/03/04 02:25:44;;;;;;;114.90;47.03;;;6.70;99.90;;;;;;5094049;28;20201;-78
2021/03/04 02:28:32;;;;;;;117.97;46.57;;;6.70;99.90;;;;;;5098046;28;20247;-77
2021/03/04 02:31:17;;;;;;;117.10;46.63;;;6.70;99.90;;;;;;5097856;28;20225;-78
2021/03/04 02:34:04;;;;;;;116.50;46.50;;;6.70;99.90;;;;;;5095017;28;20204;-77
2021/03/04 02:36:51;;;;;;;131.07;49.73;;;6.70;99.90;;;;;;5095745;28;20225;-77
2021/03/04 02:39:36;;;;;;;129.23;48.57;;;6.70;99.90;;;;;;5097111;28;20259;-77
2021/03/04 02:42:24;;;;;;;134.33;50.80;;;6.70;99.90;;;;;;5096657;28;20225;-78
2021/03/04 02:45:13;;;;;;;129.90;48.27;;;6.70;99.90;;;;;;5092290;28;20291;-77
2021/03/04 02:47:59;;;;;;;127.93;47.43;;;6.70;99.90;;;;;;5090657;28;20286;-76
2021/03/04 02:50:47;;;;;;;134.60;47.90;;;6.70;99.90;;;;;;5099790;28;20205;-79
2021/03/04 02:53:34;;;;;;;135.40;47.47;;;6.70;99.90;;;;;;5103946;28;20290;-79
2021/03/04 02:56:19;;;;;;;133.77;49.13;;;6.70;99.90;;;;;;5108219;28;20300;-79
2021/03/04 02:59:06;;;;;;;132.57;50.47;;;6.60;99.90;;;;;;5106187;28;20765;-79
2021/03/04 03:01:53;;;;;;;126.90;48.03;;;6.70;99.90;;;;;;5106564;28;20256;-79
2021/03/04 03:04:39;;;;;;;125.50;44.97;;;6.70;99.90;;;;;;5100342;28;20210;-76
2021/03/04 03:07:26;;;;;;;131.30;47.07;;;6.70;99.90;;;;;;5107850;28;20578;-76
2021/03/04 03:10:13;;;;;;;123.57;48.67;;;6.70;99.90;;;;;;5090293;28;20576;-77
2021/03/04 03:13:00;;;;;;;108.67;42.07;;;6.70;99.90;;;;;;5100973;28;20225;-79
2021/03/04 03:15:47;;;;;;;93.20;37.63;;;6.70;99.90;;;;;;5101750;28;20335;-79
2021/03/04 03:18:33;;;;;;;96.57;38.13;;;6.70;99.90;;;;;;5116249;28;20342;-79
2021/03/04 03:21:18;;;;;;;91.60;36.30;;;6.70;99.90;;;;;;5102896;28;20228;-79
2021/03/04 03:24:03;;;;;;;87.13;35.10;;;6.60;99.90;;;;;;5115709;28;20200;-77
2021/03/04 03:26:48;;;;;;;79.03;32.60;;;6.60;99.90;;;;;;5092272;28;20197;-76
2021/03/04 03:29:32;;;;;;;74.80;33.20;;;6.60;99.90;;;;;;5090201;28;20570;-79
2021/03/04 03:32:17;;;;;;;77.67;33.20;;;6.60;99.90;;;;;;5100141;28;20287;-76
2021/03/04 03:35:05;;;;;;;69.50;31.00;;;6.60;99.90;;;;;;5107956;28;20200;-79
2021/03/04 03:37:52;;;;;;;68.53;31.40;;;6.60;99.90;;;;;;5104916;28;20205;-76
2021/03/04 03:40:39;;;;;;;67.27;29.97;;;6.60;99.90;;;;;;5094567;28;20567;-77
2021/03/04 03:43:24;;;;;;;58.50;29.07;;;6.60;99.90;;;;;;5119558;28;20222;-79
2021/03/04 03:46:11;;;;;;;67.20;30.80;;;6.60;99.90;;;;;;5117113;28;20197;-79
2021/03/04 03:48:58;;;;;;;63.80;30.00;;;6.60;99.90;;;;;;5113381;28;20267;-79
2021/03/04 03:51:45;;;;;;;70.73;32.57;;;6.60;99.90;;;;;;5117615;28;20235;-79
2021/03/04 03:54:30;;;;;;;79.83;33.50;;;6.50;99.90;;;;;;5117001;28;20746;-76
2021/03/04 03:57:15;;;;;;;80.43;32.73;;;6.50;99.90;;;;;;5109056;28;20205;-79
2021/03/04 04:00:01;;;;;;;77.47;33.13;;;6.50;99.90;;;;;;5108095;28;20213;-79
2021/03/04 04:02:47;;;;;;;81.53;32.60;;;6.50;99.90;;;;;;5095242;28;20221;-76
2021/03/04 04:05:33;;;;;;;75.53;31.00;;;6.50;99.90;;;;;;5106721;28;20203;-76
2021/03/04 04:08:19;;;;;;;74.43;30.53;;;6.50;99.90;;;;;;5093715;28;20216;-76
2021/03/04 04:11:04;;;;;;;75.87;31.60;;;6.50;99.90;;;;;;5102705;28;20300;-76
2021/03/04 04:13:49;;;;;;;74.77;30.13;;;6.50;99.90;;;;;;5104358;28;20606;-76
2021/03/04 04:16:35;;;;;;;73.40;30.87;;;6.40;99.90;;;;;;5120219;28;20209;-79
2021/03/04 04:19:20;;;;;;;63.83;28.63;;;6.50;99.90;;;;;;5111529;28;20229;-78
2021/03/04 04:22:05;;;;;;;67.77;29.77;;;6.50;99.90;;;;;;5106315;28;20235;-76
2021/03/04 04:24:51;;;;;;;74.40;31.57;;;6.50;99.90;;;;;;5101759;28;20225;-76
2021/03/04 04:27:36;;;;;;;66.97;31.13;;;6.50;99.90;;;;;;5109003;28;20205;-76
2021/03/04 04:30:24;;;;;;;73.47;32.83;;;6.40;99.90;;;;;;5112520;28;20284;-78
2021/03/04 04:33:09;;;;;;;71.30;30.57;;;6.50;99.90;;;;;;5112538;28;20219;-78
2021/03/04 04:35:54;;;;;;;72.83;31.00;;;6.40;99.90;;;;;;5110676;28;20250;-78
2021/03/04 04:38:39;;;;;;;74.63;31.27;;;6.40;99.90;;;;;;5109545;28;20293;-78
2021/03/04 04:41:24;;;;;;;86.67;32.83;;;6.40;99.90;;;;;;5114129;28;20308;-78
2021/03/04 04:44:09;;;;;;;81.93;33.23;;;6.40;99.90;;;;;;5112269;28;20209;-78
2021/03/04 04:46:54;;;;;;;78.53;32.13;;;6.40;99.90;;;;;;5110481;28;20897;-78
2021/03/04 04:49:39;;;;;;;77.57;33.50;;;6.40;99.90;;;;;;5111602;28;20230;-78
2021/03/04 04:52:24;;;;;;;78.47;32.97;;;6.40;99.90;;;;;;5112333;28;20270;-78
2021/03/04 04:55:09;;;;;;;77.43;32.20;;;6.40;99.90;;;;;;5108857;28;20224;-78
2021/03/04 04:57:55;;;;;;;79.80;30.83;;;6.40;99.90;;;;;;5114669;28;20216;-78
2021/03/04 05:00:40;;;;;;;78.27;31.93;;;6.40;99.90;;;;;;5111118;28;20239;-78
2021/03/04 05:03:25;;;;;;;77.47;30.50;;;6.40;99.90;;;;;;5105449;28;20223;-78
2021/03/04 05:06:10;;;;;;;67.97;28.83;;;6.40;99.90;;;;;;5110183;28;20266;-78
2021/03/04 05:08:55;;;;;;;70.80;29.77;;;6.40;99.90;;;;;;5110954;28;20205;-78
2021/03/04 05:11:41;;;;;;;69.07;29.00;;;6.30;99.90;;;;;;5114830;28;20717;-79
2021/03/04 05:14:26;;;;;;;64.73;28.70;;;6.30;99.90;;;;;;5109606;28;20250;-79
2021/03/04 05:17:11;;;;;;;74.30;30.37;;;6.30;99.90;;;;;;5111368;28;20205;-78
2021/03/04 05:19:56;;;;;;;72.43;30.03;;;6.30;99.90;;;;;;5109985;28;20270;-78
2021/03/04 05:22:40;;;;;;;70.60;29.13;;;6.30;99.90;;;;;;5109621;28;20245;-78
2021/03/04 05:25:25;;;;;;;70.57;29.03;;;6.30;99.90;;;;;;5108042;28;20997;-77
2021/03/04 05:28:10;;;;;;;69.73;29.17;;;6.30;99.90;;;;;;5109689;28;20204;-78
2021/03/04 05:30:56;;;;;;;76.47;31.33;;;6.30;99.90;;;;;;5107571;28;20232;-78
2021/03/04 05:33:41;;;;;;;72.17;31.10;;;6.30;99.90;;;;;;5108841;28;20284;-78
2021/03/04 05:36:26;;;;;;;78.63;31.93;;;6.20;99.90;;;;;;5093896;28;20210;-78
2021/03/04 05:39:10;;;;;;;81.77;31.27;;;6.20;99.90;;;;;;5101240;28;20197;-77
2021/03/04 05:41:57;;;;;;;69.63;29.60;;;6.20;99.90;;;;;;5094130;28;20251;-78
2021/03/04 05:44:43;;;;;;;76.10;32.03;;;6.20;99.90;;;;;;5095930;28;20217;-78
2021/03/04 05:47:29;;;;;;;72.87;29.97;;;6.20;99.90;;;;;;5106266;28;20243;-78
2021/03/04 05:50:14;;;;;;;72.50;29.27;;;6.20;99.90;;;;;;5108458;28;20270;-78
2021/03/04 05:53:05;;;;;;;68.83;29.57;;;6.20;99.90;;;;;;5104459;28;20232;-79
2021/03/04 05:55:50;;;;;;;69.63;29.47;;;6.20;99.90;;;;;;5106706;28;20692;-79
2021/03/04 05:58:35;;;;;;;72.43;30.03;;;6.20;99.90;;;;;;5100963;28;20221;-78
2021/03/04 06:01:23;;;;;;;75.63;31.13;;;6.20;99.90;;;;;;5102809;28;20291;-79
2021/03/04 06:04:10;;;;;;;75.83;30.37;;;6.20;99.90;;;;;;5104203;28;20293;-79
2021/03/04 06:06:55;;;;;;;68.60;30.53;;;6.10;99.90;;;;;;5106513;28;20251;-78
2021/03/04 06:09:40;;;;;;;80.33;33.90;;;6.10;99.90;;;;;;5107645;28;20208;-79
2021/03/04 06:12:29;;;;;;;80.87;31.00;;;6.10;99.90;;;;;;5104467;28;20231;-78
2021/03/04 06:15:14;;;;;;;79.37;33.50;;;6.10;99.90;;;;;;5109459;28;20238;-79
2021/03/04 06:18:00;;;;;;;76.97;30.53;;;6.10;99.90;;;;;;5099412;28;20278;-79
2021/03/04 06:20:46;;;;;;;74.70;30.57;;;6.00;99.90;;;;;;5104227;28;20254;-78
2021/03/04 06:23:32;;;;;;;85.37;33.47;;;6.00;99.90;;;;;;5101922;28;20202;-78
2021/03/04 06:29:31;;;;;;;85.97;32.30;;;6.00;99.90;;;;;;5097697;28;20254;-78
2021/03/04 06:32:22;;;;;;;86.53;32.63;;;6.00;99.90;;;;;;5102489;28;20368;-78
2021/03/04 06:35:10;;;;;;;74.83;31.13;;;6.00;99.90;;;;;;5107050;28;20573;-79
2021/03/04 06:37:55;;;;;;;89.50;34.40;;;6.00;99.90;;;;;;5099156;28;20221;-78
2021/03/04 06:40:40;;;;;;;79.37;32.93;;;5.90;99.90;;;;;;5098947;28;20587;-78
2021/03/04 06:43:27;;;;;;;99.37;35.63;;;5.90;99.90;;;;;;5098285;28;20192;-79
2021/03/04 06:46:12;;;;;;;80.00;32.13;;;5.90;99.90;;;;;;5103543;28;20410;-78
2021/03/04 06:48:57;;;;;;;84.07;33.00;;;5.90;99.90;;;;;;5102326;28;20250;-79
2021/03/04 06:51:43;;;;;;;87.20;31.33;;;5.90;99.90;;;;;;5106542;28;20271;-78
2021/03/04 06:54:28;;;;;;;86.13;32.30;;;5.90;99.90;;;;;;5107309;28;20204;-79
2021/03/04 06:57:14;;;;;;;81.77;31.97;;;5.90;99.90;;;;;;5099065;28;20206;-78
2021/03/04 06:59:59;;;;;;;89.17;32.87;;;5.90;99.90;;;;;;5106895;28;20220;-78
2021/03/04 07:02:51;;;;;;;91.40;32.53;;;5.90;99.90;;;;;;5100233;28;20212;-79
2021/03/04 07:05:37;;;;;;;71.87;28.17;;;5.90;99.90;;;;;;5103554;28;20209;-79
2021/03/04 07:08:22;;;;;;;84.10;30.47;;;5.90;99.90;;;;;;5110190;28;20208;-78
2021/03/04 07:11:09;;;;;;;94.37;32.10;;;5.90;99.90;;;;;;5100758;28;20260;-78
2021/03/04 07:13:56;;;;;;;87.63;32.30;;;5.90;99.90;;;;;;5095578;28;20743;-78
2021/03/04 07:16:43;;;;;;;94.03;35.60;;;5.90;99.90;;;;;;5097671;28;20262;-77
2021/03/04 07:19:31;;;;;;;89.07;33.23;;;5.90;99.90;;;;;;5095868;28;20211;-78
2021/03/04 07:22:17;;;;;;;80.90;30.90;;;5.90;99.90;;;;;;5090226;28;20224;-78
2021/03/04 07:25:01;;;;;;;77.27;30.60;;;5.90;99.90;;;;;;5092697;28;20206;-78
2021/03/04 07:27:47;;;;;;;78.93;32.27;;;5.90;99.90;;;;;;5098656;28;20258;-78
2021/03/04 07:30:33;;;;;;;79.63;30.80;;;5.90;99.90;;;;;;5095963;28;20235;-77
2021/03/04 07:33:18;;;;;;;74.93;29.47;;;5.90;99.90;;;;;;5096909;28;20294;-78
2021/03/04 07:36:06;;;;;;;84.57;31.17;;;5.90;99.90;;;;;;5110734;28;20898;-77
2021/03/04 07:38:55;;;;;;;80.63;31.93;;;5.90;99.90;;;;;;5114726;28;20220;-77
2021/03/04 07:41:41;;;;;;;80.87;30.03;;;5.90;99.90;;;;;;5120712;28;20353;-78
2021/03/04 07:44:28;;;;;;;70.73;29.57;;;5.90;99.90;;;;;;5116462;28;20188;-78
2021/03/04 07:47:14;;;;;;;78.20;29.23;;;5.90;99.90;;;;;;5104511;28;20208;-79
2021/03/04 07:49:59;;;;;;;75.90;30.03;;;5.90;99.90;;;;;;5097673;28;20704;-79
2021/03/04 07:52:44;;;;;;;72.57;27.43;;;5.90;99.90;;;;;;5098945;28;20259;-78
2021/03/04 07:55:37;;;;;;;78.23;30.87;;;5.90;99.90;;;;;;5099571;28;20204;-78
2021/03/04 07:58:23;;;;;;;72.90;29.63;;;5.90;99.90;;;;;;5098184;28;20591;-79
2021/03/04 08:01:11;;;;;;;79.67;31.07;;;6.00;99.90;;;;;;5104177;28;20638;-79
2021/03/04 08:03:56;;;;;;;80.40;31.70;;;6.00;99.90;;;;;;5096408;28;20190;-79
2021/03/04 08:06:44;;;;;;;83.90;30.17;;;6.00;99.90;;;;;;5103402;28;20299;-80
2021/03/04 08:09:31;;;;;;;76.20;28.70;;;6.00;99.90;;;;;;5108676;28;20210;-80
2021/03/04 08:12:16;;;;;;;85.33;30.70;;;6.00;99.90;;;;;;5098475;28;20227;-78
2021/03/04 08:15:01;;;;;;;72.93;27.20;;;6.00;99.90;;;;;;5096006;28;20226;-80
2021/03/04 08:17:47;;;;;;;78.33;29.37;;;6.00;99.90;;;;;;5114379;28;20707;-77
2021/03/04 08:20:32;;;;;;;76.63;28.73;;;6.00;99.90;;;;;;5108671;28;20688;-79
2021/03/04 08:23:18;;;;;;;74.27;28.07;;;6.10;99.90;;;;;;5103578;28;20572;-78
2021/03/04 08:26:04;;;;;;;68.10;26.23;;;6.10;99.90;;;;;;5100632;28;20217;-80
2021/03/04 08:29:01;;;;;;;58.73;25.47;;;6.10;99.90;;;;;;5099048;28;20309;-80
2021/03/04 08:31:48;;;;;;;71.83;25.70;;;6.10;99.90;;;;;;5098473;28;20271;-79
2021/03/04 08:34:38;;;;;;;69.30;25.57;;;6.20;99.90;;;;;;5099178;28;20201;-78
2021/03/04 08:37:24;;;;;;;62.20;24.27;;;6.20;99.90;;;;;;5099626;28;20220;-79
2021/03/04 08:40:09;;;;;;;59.03;23.40;;;6.20;99.90;;;;;;5104073;28;20204;-79
2021/03/04 08:42:55;;;;;;;60.13;24.50;;;6.20;99.90;;;;;;5101463;28;20231;-78
2021/03/04 08:45:40;;;;;;;65.30;25.73;;;6.20;99.90;;;;;;5098095;28;20246;-80
2021/03/04 08:48:25;;;;;;;60.07;24.40;;;6.30;99.90;;;;;;5111754;28;20205;-80
2021/03/04 08:51:12;;;;;;;62.53;24.47;;;6.30;99.90;;;;;;5098596;28;20721;-81
2021/03/04 08:53:57;;;;;;;63.53;26.60;;;6.30;99.90;;;;;;5101795;28;20931;-79
2021/03/04 08:56:51;;;;;;;58.90;25.33;;;6.30;99.90;;;;;;5116516;28;20217;-79
2021/03/04 08:59:36;;;;;;;61.40;23.13;;;6.40;99.90;;;;;;5101004;28;20267;-80
2021/03/04 09:02:21;;;;;;;64.70;23.40;;;6.40;99.90;;;;;;5099629;28;20229;-78
2021/03/04 09:05:07;;;;;;;62.03;22.53;;;6.40;99.90;;;;;;5113946;28;20255;-79
2021/03/04 09:07:53;;;;;;;59.47;24.27;;;6.40;99.90;;;;;;5099604;28;20204;-80
2021/03/04 09:10:46;;;;;;;64.80;24.53;;;6.40;99.90;;;;;;5116408;28;20200;-78
2021/03/04 09:13:32;;;;;;;62.90;24.60;;;6.40;99.90;;;;;;5114416;28;20224;-78
2021/03/04 09:16:17;;;;;;;63.80;23.77;;;6.40;99.90;;;;;;5103678;28;20275;-80
2021/03/04 09:19:02;;;;;;;70.43;23.90;;;6.40;99.90;;;;;;5100284;28;20205;-81
2021/03/04 09:21:47;;;;;;;60.27;24.27;;;6.40;99.90;;;;;;5111334;28;20243;-80
2021/03/04 09:24:34;;;;;;;64.13;25.27;;;6.50;99.90;;;;;;5115229;28;20204;-79
2021/03/04 09:27:20;;;;;;;61.80;24.73;;;6.40;99.90;;;;;;5122237;28;20200;-79
2021/03/04 09:30:07;;;;;;;65.00;25.03;;;6.50;99.90;;;;;;5099358;28;20256;-80
2021/03/04 09:32:53;;;;;;;68.30;24.50;;;6.50;99.90;;;;;;5099411;28;20258;-79
2021/03/04 09:35:38;;;;;;;66.67;25.47;;;6.50;99.90;;;;;;5117984;28;20290;-80
2021/03/04 09:38:25;;;;;;;64.87;25.50;;;6.50;99.90;;;;;;5117754;28;20755;-80
2021/03/04 09:41:12;;;;;;;64.97;24.10;;;6.60;99.90;;;;;;5100874;28;20713;-79
2021/03/04 09:44:01;;;;;;;62.70;24.43;;;6.60;99.90;;;;;;5109476;28;20567;-78
2021/03/04 09:46:49;;;;;;;64.73;25.03;;;6.60;99.90;;;;;;5112120;28;20221;-79
2021/03/04 09:49:35;;;;;;;61.63;24.07;;;6.60;99.90;;;;;;5105147;28;20243;-80
2021/03/04 09:52:22;;;;;;;60.27;22.93;;;6.60;99.90;;;;;;5102195;28;20228;-79
2021/03/04 09:55:10;;;;;;;60.23;23.83;;;6.70;99.90;;;;;;5098623;28;20224;-79
2021/03/04 09:57:55;;;;;;;67.40;24.43;;;6.70;99.90;;;;;;5102211;28;20284;-79
2021/03/04 10:00:41;;;;;;;51.57;22.27;;;6.80;99.90;;;;;;5115205;28;20193;-80
2021/03/04 10:03:32;;;;;;;53.30;22.97;;;6.80;99.90;;;;;;5105041;28;20209;-81
2021/03/04 10:06:20;;;;;;;50.43;21.50;;;6.80;99.90;;;;;;5110341;28;20201;-79
2021/03/04 10:09:07;;;;;;;49.33;21.23;;;6.90;99.90;;;;;;5103614;28;20213;-79
2021/03/04 10:11:52;;;;;;;52.80;21.60;;;6.90;99.90;;;;;;5104979;28;20229;-79
2021/03/04 10:14:44;;;;;;;47.23;19.60;;;6.90;99.90;;;;;;5116356;28;20253;-80
2021/03/04 10:17:39;;;;;;;45.77;19.97;;;7.00;99.90;;;;;;5102727;28;20264;-78
2021/03/04 10:20:25;;;;;;;53.63;21.47;;;7.00;99.90;;;;;;5105818;28;20212;-79
2021/03/04 10:23:10;;;;;;;42.30;18.63;;;7.10;99.90;;;;;;5099809;28;20185;-79
2021/03/04 10:25:55;;;;;;;50.00;18.97;;;7.10;99.90;;;;;;5102331;28;20229;-79
2021/03/04 10:28:40;;;;;;;43.93;19.27;;;7.20;99.90;;;;;;5097707;28;20256;-78
2021/03/04 10:31:26;;;;;;;46.63;18.63;;;7.20;99.90;;;;;;5101538;28;20236;-81
2021/03/04 10:34:11;;;;;;;44.93;17.70;;;7.30;99.90;;;;;;5111190;28;20201;-79
2021/03/04 10:36:56;;;;;;;42.90;17.40;;;7.30;99.90;;;;;;5099004;28;20259;-78
2021/03/04 10:39:41;;;;;;;38.97;17.43;;;7.30;99.90;;;;;;5099181;28;20209;-80
2021/03/04 10:42:25;;;;;;;40.20;18.13;;;7.40;99.90;;;;;;5113680;28;20224;-78
2021/03/04 10:45:13;;;;;;;42.13;17.20;;;7.40;99.90;;;;;;5107564;28;20244;-78
2021/03/04 10:47:59;;;;;;;37.30;16.17;;;7.40;99.90;;;;;;5103042;28;20246;-79
2021/03/04 10:50:44;;;;;;;40.67;16.37;;;7.50;99.90;;;;;;5113793;28;20273;-81
2021/03/04 10:53:29;;;;;;;34.63;15.90;;;7.50;99.90;;;;;;5110701;28;20212;-79
2021/03/04 10:56:13;;;;;;;40.80;16.53;;;7.50;99.90;;;;;;5098752;28;20846;-79
2021/03/04 10:58:58;;;;;;;35.47;15.63;;;7.50;99.90;;;;;;5100640;28;20201;-79
2021/03/04 11:01:43;;;;;;;38.87;15.87;;;7.50;99.90;;;;;;5097643;28;20245;-80
2021/03/04 11:04:29;;;;;;;32.87;14.87;;;7.50;99.90;;;;;;5107227;28;20270;-79
2021/03/04 11:07:14;;;;;;;35.60;15.80;;;7.60;99.90;;;;;;5105743;28;20223;-79
2021/03/04 11:09:59;;;;;;;35.60;13.80;;;7.60;99.90;;;;;;5118452;28;20217;-80
2021/03/04 11:12:44;;;;;;;34.17;13.53;;;7.60;99.90;;;;;;5098290;28;20782;-80
2021/03/04 11:15:28;;;;;;;30.17;12.83;;;7.60;99.90;;;;;;5097663;28;20204;-80
2021/03/04 11:18:13;;;;;;;31.80;13.70;;;7.60;99.90;;;;;;5108589;28;20331;-79
2021/03/04 11:20:59;;;;;;;28.17;12.87;;;7.50;99.90;;;;;;5109151;28;20622;-80
2021/03/04 11:23:45;;;;;;;30.17;13.87;;;7.70;99.90;;;;;;5109755;28;20238;-80
2021/03/04 11:26:30;;;;;;;27.00;11.77;;;7.70;99.90;;;;;;5102088;28;20216;-79
2021/03/04 11:29:15;;;;;;;28.80;11.77;;;7.80;99.90;;;;;;5097039;28;20651;-78
2021/03/04 11:31:59;;;;;;;24.80;12.30;;;7.80;99.90;;;;;;5101879;28;20598;-79
2021/03/04 11:34:44;;;;;;;27.93;12.63;;;7.80;99.90;;;;;;5101094;28;20610;-80
2021/03/04 11:37:30;;;;;;;25.83;11.97;;;7.80;99.90;;;;;;5100177;28;20243;-79
2021/03/04 11:40:15;;;;;;;28.47;12.10;;;7.80;99.90;;;;;;5111082;28;20209;-81
2021/03/04 11:43:00;;;;;;;29.77;13.43;;;7.90;99.90;;;;;;5098272;28;20274;-79
2021/03/04 11:45:45;;;;;;;26.60;12.90;;;7.90;99.90;;;;;;5095965;28;20397;-80
2021/03/04 11:48:29;;;;;;;28.33;12.73;;;7.90;99.90;;;;;;5097305;28;20205;-80
2021/03/04 11:51:15;;;;;;;26.70;11.70;;;8.00;99.90;;;;;;5113736;28;20316;-79
2021/03/04 11:54:01;;;;;;;26.10;10.93;;;8.00;99.90;;;;;;5098480;28;20247;-79
2021/03/04 11:56:46;;;;;;;25.03;10.53;;;8.00;99.90;;;;;;5097598;28;20561;-78
2021/03/04 11:59:31;;;;;;;26.73;11.30;;;8.00;99.90;;;;;;5100800;28;20208;-80
2021/03/04 12:02:16;;;;;;;24.47;11.63;;;8.00;99.90;;;;;;5113986;28;20267;-79
2021/03/04 12:05:01;;;;;;;23.67;10.13;;;8.00;99.90;;;;;;5101474;28;20232;-79
2021/03/04 12:07:46;;;;;;;22.47;11.23;;;8.00;99.90;;;;;;5106242;28;20216;-78
2021/03/04 12:10:31;;;;;;;23.97;10.67;;;8.00;99.90;;;;;;5105156;28;20255;-79
2021/03/04 12:13:16;;;;;;;20.93;10.13;;;8.00;99.90;;;;;;5118246;28;20277;-80
2021/03/04 12:16:04;;;;;;;22.33;10.73;;;8.00;99.90;;;;;;5113420;28;20281;-80
2021/03/04 12:18:49;;;;;;;24.20;10.83;;;8.00;99.90;;;;;;5114849;28;20642;-79
2021/03/04 12:21:34;;;;;;;20.33;10.33;;;7.90;99.90;;;;;;5107955;28;20263;-79
2021/03/04 12:24:18;;;;;;;22.20;10.67;;;7.90;99.90;;;;;;5112421;28;20205;-78
2021/03/04 12:27:06;;;;;;;16.63;8.47;;;7.90;99.90;;;;;;5102453;28;20205;-80
2021/03/04 12:29:51;;;;;;;17.57;8.63;;;7.80;99.90;;;;;;5105069;28;20564;-80
2021/03/04 12:32:36;;;;;;;16.80;7.63;;;7.80;99.90;;;;;;5113031;28;20274;-80
2021/03/04 12:35:21;;;;;;;15.10;7.33;;;7.70;99.90;;;;;;5112181;28;20264;-80
2021/03/04 12:38:06;;;;;;;14.20;6.77;;;7.70;99.90;;;;;;5110803;28;20209;-78
2021/03/04 12:40:51;;;;;;;12.40;6.37;;;7.70;99.90;;;;;;5101504;28;20227;-80
2021/03/04 12:43:37;;;;;;;12.77;6.20;;;7.60;99.90;;;;;;5102480;28;20220;-79
2021/03/04 12:46:23;;;;;;;13.03;6.20;;;7.50;99.90;;;;;;5101707;28;20209;-78
2021/03/04 12:49:07;;;;;;;12.77;6.73;;;7.50;99.90;;;;;;5108430;28;20205;-80
2021/03/04 12:51:52;;;;;;;11.43;6.17;;;7.50;99.90;;;;;;5103176;28;20224;-78
2021/03/04 12:54:37;;;;;;;11.47;5.40;;;7.50;99.90;;;;;;5107503;28;20243;-78
2021/03/04 12:57:22;;;;;;;10.93;5.57;;;7.50;99.90;;;;;;5108826;28;20285;-80
2021/03/04 13:00:12;;;;;;;9.03;4.90;;;7.50;99.90;;;;;;5119272;28;20208;-79
2021/03/04 13:02:57;;;;;;;9.40;5.07;;;7.50;99.90;;;;;;5111087;28;20275;-81
2021/03/04 13:05:43;;;;;;;8.83;5.13;;;7.50;99.90;;;;;;5104055;28;20255;-79
2021/03/04 13:08:28;;;;;;;9.67;4.30;;;7.60;99.90;;;;;;5119259;28;20725;-80
2021/03/04 13:11:14;;;;;;;8.70;4.40;;;7.70;99.90;;;;;;5107532;28;20267;-80
2021/03/04 13:13:59;;;;;;;10.27;5.07;;;7.70;99.90;;;;;;5106270;28;20247;-79
2021/03/04 13:16:45;;;;;;;8.37;4.17;;;7.90;99.90;;;;;;5121657;28;20250;-80
2021/03/04 13:19:29;;;;;;;7.67;4.17;;;8.00;99.90;;;;;;5099616;28;20283;-79
2021/03/04 13:22:14;;;;;;;7.33;4.80;;;8.10;99.90;;;;;;5102442;28;20239;-79
2021/03/04 13:25:00;;;;;;;7.57;4.13;;;8.20;99.90;;;;;;5103831;28;20261;-78
2021/03/04 13:27:44;;;;;;;7.60;4.30;;;8.30;99.90;;;;;;5102401;28;20282;-79
2021/03/04 13:30:30;;;;;;;9.70;4.33;;;8.40;99.90;;;;;;5115117;28;20201;-78
2021/03/04 13:33:18;;;;;;;6.80;4.00;;;8.50;99.90;;;;;;5113309;28;20221;-80
2021/03/04 13:36:04;;;;;;;8.10;3.87;;;8.50;99.90;;;;;;5102290;28;20205;-79
2021/03/04 13:38:49;;;;;;;9.47;3.77;;;8.60;99.90;;;;;;5098005;28;20707;-80
2021/03/04 13:41:33;;;;;;;7.07;3.33;;;8.60;99.90;;;;;;5102813;28;20667;-80
2021/03/04 13:44:18;;;;;;;9.53;4.10;;;8.60;99.90;;;;;;5106608;28;20200;-78
2021/03/04 13:47:03;;;;;;;5.67;3.40;;;8.70;99.90;;;;;;5099293;28;20256;-80
2021/03/04 13:49:49;;;;;;;10.50;4.00;;;8.70;99.90;;;;;;5099120;28;20209;-79
2021/03/04 13:52:34;;;;;;;6.50;3.73;;;8.70;99.90;;;;;;5119967;28;20293;-77
2021/03/04 13:55:19;;;;;;;6.17;3.17;;;8.70;99.90;;;;;;5118650;28;20204;-80
2021/03/04 13:58:04;;;;;;;7.17;3.87;;;8.70;99.90;;;;;;5100164;28;20267;-78
2021/03/04 14:00:49;;;;;;;6.70;3.47;;;8.70;99.90;;;;;;5102656;28;20204;-79
2021/03/04 14:03:36;;;;;;;11.40;4.10;;;8.70;99.90;;;;;;5100688;28;20275;-79
2021/03/04 14:06:22;;;;;;;9.03;3.90;;;8.70;99.90;;;;;;5109354;28;20235;-79
2021/03/04 14:09:07;;;;;;;7.90;3.33;;;8.80;99.90;;;;;;5117191;28;20205;-79
2021/03/04 14:11:52;;;;;;;6.27;3.60;;;8.80;99.90;;;;;;5106075;28;20233;-80
2021/03/04 14:14:37;;;;;;;5.77;3.67;;;8.80;99.90;;;;;;5100550;28;20251;-79